sensor_id;sensor_type;location;lat;lon;timestamp;pressure;altitude;pressure_sealevel;temperature;humidity
49709;BME280;35601;55.902;13.606;2023-07-24T00:00:44;99403.83;;;14.20;97.31
49709;BME280;35601;55.902;13.606;2023-07-24T00:03:09;99399.44;;;14.58;97.54
49709;BME280;35601;55.902;13.606;2023-07-24T00:05:35;99393.46;;;14.22;97.19
49709;BME280;35601;55.902;13.606;2023-07-24T00:08:00;99389.89;;;14.39;97.53
49709;BME280;35601;55.902;13.606;2023-07-24T00:10:25;99389.36;;;14.26;98.13
49709;BME280;35601;55.902;13.606;2023-07-24T00:12:51;99388.96;;;14.48;98.34
49709;BME280;35601;55.902;13.606;2023-07-24T00:15:16;99383.13;;;14.34;99.11
49709;BME280;35601;55.902;13.606;2023-07-24T00:17:42;99378.02;;;14.34;99.10
49709;BME280;35601;55.902;13.606;2023-07-24T00:20:07;99375.16;;;14.44;98.62
49709;BME280;35601;55.902;13.606;2023-07-24T00:22:32;99375.75;;;14.08;99.00
49709;BME280;35601;55.902;13.606;2023-07-24T00:24:58;99369.64;;;14.35;98.96
49709;BME280;35601;55.902;13.606;2023-07-24T00:27:23;99367.32;;;14.05;99.10
49709;BME280;35601;55.902;13.606;2023-07-24T00:29:49;99366.12;;;14.33;98.84
49709;BME280;35601;55.902;13.606;2023-07-24T00:32:14;99361.12;;;14.15;98.59
49709;BME280;35601;55.902;13.606;2023-07-24T00:34:40;99363.09;;;14.15;98.87
49709;BME280;35601;55.902;13.606;2023-07-24T00:37:05;99360.71;;;14.42;98.73
49709;BME280;35601;55.902;13.606;2023-07-24T00:39:30;99361.20;;;14.03;98.15
49709;BME280;35601;55.902;13.606;2023-07-24T00:41:56;99359.70;;;14.34;97.89
49709;BME280;35601;55.902;13.606;2023-07-24T00:44:21;99359.47;;;14.17;97.48
49709;BME280;35601;55.902;13.606;2023-07-24T00:46:46;99358.63;;;14.49;97.36
49709;BME280;35601;55.902;13.606;2023-07-24T00:49:12;99359.00;;;14.39;96.95
49709;BME280;35601;55.902;13.606;2023-07-24T00:51:38;99359.86;;;14.35;96.97
49709;BME280;35601;55.902;13.606;2023-07-24T00:54:06;99354.46;;;14.21;97.45
49709;BME280;35601;55.902;13.606;2023-07-24T00:56:30;99356.80;;;14.37;97.00
49709;BME280;35601;55.902;13.606;2023-07-24T00:58:55;99353.97;;;14.58;97.28
49709;BME280;35601;55.902;13.606;2023-07-24T01:01:20;99354.55;;;14.23;97.39
49709;BME280;35601;55.902;13.606;2023-07-24T01:03:45;99351.26;;;14.49;97.60
49709;BME280;35601;55.902;13.606;2023-07-24T01:06:10;99351.65;;;14.28;97.41
49709;BME280;35601;55.902;13.606;2023-07-24T01:08:36;99351.90;;;14.34;97.26
49709;BME280;35601;55.902;13.606;2023-07-24T01:11:05;99350.60;;;14.77;97.68
49709;BME280;35601;55.902;13.606;2023-07-24T01:13:28;99348.88;;;14.29;97.55
49709;BME280;35601;55.902;13.606;2023-07-24T01:15:57;99350.09;;;14.81;97.57
49709;BME280;35601;55.902;13.606;2023-07-24T01:18:18;99348.23;;;14.31;97.41
49709;BME280;35601;55.902;13.606;2023-07-24T01:20:47;99346.94;;;14.41;97.07
49709;BME280;35601;55.902;13.606;2023-07-24T01:23:18;99341.71;;;14.68;96.90
49709;BME280;35601;55.902;13.606;2023-07-24T01:25:35;99337.52;;;14.42;97.19
49709;BME280;35601;55.902;13.606;2023-07-24T01:27:59;99335.98;;;14.55;96.70
49709;BME280;35601;55.902;13.606;2023-07-24T01:30:24;99332.92;;;14.50;96.79
49709;BME280;35601;55.902;13.606;2023-07-24T01:32:50;99325.35;;;14.42;96.92
49709;BME280;35601;55.902;13.606;2023-07-24T01:35:16;99324.46;;;14.41;96.80
49709;BME280;35601;55.902;13.606;2023-07-24T01:37:42;99323.57;;;14.32;97.42
49709;BME280;35601;55.902;13.606;2023-07-24T01:40:08;99320.77;;;14.40;97.10
49709;BME280;35601;55.902;13.606;2023-07-24T01:42:32;99326.01;;;14.44;97.00
49709;BME280;35601;55.902;13.606;2023-07-24T01:44:57;99319.87;;;14.48;96.84
49709;BME280;35601;55.902;13.606;2023-07-24T01:47:23;99316.87;;;14.53;96.71
49709;BME280;35601;55.902;13.606;2023-07-24T01:49:48;99316.50;;;14.52;96.53
49709;BME280;35601;55.902;13.606;2023-07-24T01:52:13;99313.76;;;14.46;97.15
49709;BME280;35601;55.902;13.606;2023-07-24T01:54:39;99304.21;;;14.31;96.62
49709;BME280;35601;55.902;13.606;2023-07-24T01:57:05;99303.27;;;14.53;96.88
49709;BME280;35601;55.902;13.606;2023-07-24T01:59:30;99300.08;;;14.65;96.30
49709;BME280;35601;55.902;13.606;2023-07-24T02:01:55;99296.68;;;14.69;95.95
49709;BME280;35601;55.902;13.606;2023-07-24T02:04:20;99293.20;;;14.78;95.13
49709;BME280;35601;55.902;13.606;2023-07-24T02:06:45;99288.13;;;14.57;96.22
49709;BME280;35601;55.902;13.606;2023-07-24T02:09:11;99286.45;;;14.52;96.60
49709;BME280;35601;55.902;13.606;2023-07-24T02:11:36;99290.68;;;14.54;96.63
49709;BME280;35601;55.902;13.606;2023-07-24T02:14:01;99291.06;;;14.47;97.12
49709;BME280;35601;55.902;13.606;2023-07-24T02:16:27;99292.98;;;14.34;96.62
49709;BME280;35601;55.902;13.606;2023-07-24T02:18:52;99291.99;;;14.52;96.99
49709;BME280;35601;55.902;13.606;2023-07-24T02:21:17;99289.53;;;14.55;97.00
49709;BME280;35601;55.902;13.606;2023-07-24T02:23:43;99282.16;;;14.56;96.75
49709;BME280;35601;55.902;13.606;2023-07-24T02:26:08;99281.93;;;14.59;96.63
49709;BME280;35601;55.902;13.606;2023-07-24T02:28:34;99277.18;;;14.54;96.95
49709;BME280;35601;55.902;13.606;2023-07-24T02:30:59;99274.53;;;14.58;96.45
49709;BME280;35601;55.902;13.606;2023-07-24T02:33:25;99275.09;;;14.68;96.20
49709;BME280;35601;55.902;13.606;2023-07-24T02:35:52;99275.61;;;14.62;96.27
49709;BME280;35601;55.902;13.606;2023-07-24T02:38:16;99274.31;;;14.65;96.26
49709;BME280;35601;55.902;13.606;2023-07-24T02:40:41;99270.38;;;14.62;96.44
49709;BME280;35601;55.902;13.606;2023-07-24T02:43:06;99269.30;;;14.63;96.43
49709;BME280;35601;55.902;13.606;2023-07-24T02:45:34;99269.93;;;14.43;97.38
49709;BME280;35601;55.902;13.606;2023-07-24T02:47:57;99269.56;;;14.40;97.77
49709;BME280;35601;55.902;13.606;2023-07-24T02:50:23;99267.18;;;14.34;97.73
49709;BME280;35601;55.902;13.606;2023-07-24T02:52:48;99265.71;;;14.57;97.96
49709;BME280;35601;55.902;13.606;2023-07-24T02:55:14;99263.02;;;14.27;98.38
49709;BME280;35601;55.902;13.606;2023-07-24T02:57:39;99262.43;;;14.47;97.75
49709;BME280;35601;55.902;13.606;2023-07-24T03:00:06;99262.60;;;14.49;97.78
49709;BME280;35601;55.902;13.606;2023-07-24T03:02:30;99262.43;;;14.76;97.63
49709;BME280;35601;55.902;13.606;2023-07-24T03:04:55;99265.89;;;14.55;97.46
49709;BME280;35601;55.902;13.606;2023-07-24T03:07:20;99268.25;;;14.66;97.16
49709;BME280;35601;55.902;13.606;2023-07-24T03:09:45;99264.71;;;14.52;97.39
49709;BME280;35601;55.902;13.606;2023-07-24T03:12:10;99262.50;;;14.59;97.38
49709;BME280;35601;55.902;13.606;2023-07-24T03:14:36;99261.64;;;14.60;97.34
49709;BME280;35601;55.902;13.606;2023-07-24T03:17:01;99265.25;;;14.53;97.72
49709;BME280;35601;55.902;13.606;2023-07-24T03:19:26;99266.07;;;14.40;97.25
49709;BME280;35601;55.902;13.606;2023-07-24T03:21:52;99267.05;;;14.68;97.28
49709;BME280;35601;55.902;13.606;2023-07-24T03:24:17;99265.96;;;14.99;96.99
49709;BME280;35601;55.902;13.606;2023-07-24T03:26:43;99265.87;;;14.90;97.08
49709;BME280;35601;55.902;13.606;2023-07-24T03:29:08;99260.54;;;14.63;96.98
49709;BME280;35601;55.902;13.606;2023-07-24T03:31:33;99256.82;;;14.75;96.76
49709;BME280;35601;55.902;13.606;2023-07-24T03:33:58;99257.32;;;14.81;96.48
49709;BME280;35601;55.902;13.606;2023-07-24T03:36:24;99257.19;;;14.41;96.19
49709;BME280;35601;55.902;13.606;2023-07-24T03:38:50;99256.69;;;14.69;96.16
49709;BME280;35601;55.902;13.606;2023-07-24T03:41:15;99254.54;;;14.70;95.83
49709;BME280;35601;55.902;13.606;2023-07-24T03:43:41;99254.94;;;14.86;96.14
49709;BME280;35601;55.902;13.606;2023-07-24T03:46:06;99255.58;;;14.74;95.78
49709;BME280;35601;55.902;13.606;2023-07-24T03:48:31;99256.10;;;14.71;95.88
49709;BME280;35601;55.902;13.606;2023-07-24T03:50:58;99252.60;;;15.03;95.61
49709;BME280;35601;55.902;13.606;2023-07-24T03:53:21;99252.52;;;14.98;95.70
49709;BME280;35601;55.902;13.606;2023-07-24T03:55:47;99261.24;;;14.88;96.61
49709;BME280;35601;55.902;13.606;2023-07-24T03:58:13;99260.42;;;14.90;96.57
49709;BME280;35601;55.902;13.606;2023-07-24T04:00:38;99258.97;;;14.64;95.92
49709;BME280;35601;55.902;13.606;2023-07-24T04:03:04;99261.86;;;14.69;97.45
49709;BME280;35601;55.902;13.606;2023-07-24T04:05:29;99256.96;;;14.69;97.44
49709;BME280;35601;55.902;13.606;2023-07-24T04:07:55;99253.12;;;14.69;97.42
49709;BME280;35601;55.902;13.606;2023-07-24T04:10:20;99247.18;;;14.52;98.22
49709;BME280;35601;55.902;13.606;2023-07-24T04:12:45;99245.16;;;14.62;97.77
49709;BME280;35601;55.902;13.606;2023-07-24T04:15:11;99246.14;;;14.62;98.24
49709;BME280;35601;55.902;13.606;2023-07-24T04:17:36;99239.32;;;14.84;98.05
49709;BME280;35601;55.902;13.606;2023-07-24T04:20:02;99237.33;;;14.61;98.31
49709;BME280;35601;55.902;13.606;2023-07-24T04:22:27;99245.59;;;13.42;97.95
49709;BME280;35601;55.902;13.606;2023-07-24T04:24:52;99236.31;;;14.94;96.85
49709;BME280;35601;55.902;13.606;2023-07-24T04:27:18;99238.93;;;14.81;96.94
49709;BME280;35601;55.902;13.606;2023-07-24T04:29:43;99234.29;;;14.91;97.03
49709;BME280;35601;55.902;13.606;2023-07-24T04:32:09;99237.85;;;14.69;97.35
49709;BME280;35601;55.902;13.606;2023-07-24T04:34:34;99233.80;;;14.62;97.03
49709;BME280;35601;55.902;13.606;2023-07-24T04:36:59;99232.74;;;14.86;97.17
49709;BME280;35601;55.902;13.606;2023-07-24T04:39:24;99228.68;;;14.78;97.63
49709;BME280;35601;55.902;13.606;2023-07-24T04:41:50;99225.89;;;13.92;97.15
49709;BME280;35601;55.902;13.606;2023-07-24T04:44:15;99220.78;;;14.74;95.63
49709;BME280;35601;55.902;13.606;2023-07-24T04:46:41;99222.19;;;15.13;95.62
49709;BME280;35601;55.902;13.606;2023-07-24T04:49:06;99221.72;;;15.09;96.25
49709;BME280;35601;55.902;13.606;2023-07-24T04:51:31;99219.29;;;15.12;96.66
49709;BME280;35601;55.902;13.606;2023-07-24T04:53:57;99220.18;;;15.08;97.67
49709;BME280;35601;55.902;13.606;2023-07-24T04:56:22;99225.03;;;15.27;97.99
49709;BME280;35601;55.902;13.606;2023-07-24T04:58:47;99218.55;;;15.53;96.97
49709;BME280;35601;55.902;13.606;2023-07-24T05:01:12;99211.36;;;15.15;96.00
49709;BME280;35601;55.902;13.606;2023-07-24T05:03:38;99207.80;;;15.47;94.58
49709;BME280;35601;55.902;13.606;2023-07-24T05:06:04;99208.01;;;15.53;94.66
49709;BME280;35601;55.902;13.606;2023-07-24T05:08:29;99201.76;;;15.52;94.97
49709;BME280;35601;55.902;13.606;2023-07-24T05:10:55;99199.65;;;15.50;94.50
49709;BME280;35601;55.902;13.606;2023-07-24T05:13:20;99199.72;;;15.33;94.04
49709;BME280;35601;55.902;13.606;2023-07-24T05:15:45;99198.90;;;15.61;94.77
49709;BME280;35601;55.902;13.606;2023-07-24T05:18:10;99195.50;;;15.49;94.92
49709;BME280;35601;55.902;13.606;2023-07-24T05:20:36;99198.13;;;15.68;95.28
49709;BME280;35601;55.902;13.606;2023-07-24T05:23:01;99197.05;;;15.61;94.83
49709;BME280;35601;55.902;13.606;2023-07-24T05:25:26;99193.90;;;15.66;94.17
49709;BME280;35601;55.902;13.606;2023-07-24T05:27:52;99192.95;;;15.40;94.79
49709;BME280;35601;55.902;13.606;2023-07-24T05:30:17;99196.84;;;15.83;94.46
49709;BME280;35601;55.902;13.606;2023-07-24T05:32:42;99198.88;;;15.45;94.01
49709;BME280;35601;55.902;13.606;2023-07-24T05:35:08;99197.51;;;15.59;92.96
49709;BME280;35601;55.902;13.606;2023-07-24T05:37:33;99196.67;;;15.77;92.66
49709;BME280;35601;55.902;13.606;2023-07-24T05:39:58;99196.71;;;15.58;92.79
49709;BME280;35601;55.902;13.606;2023-07-24T05:42:23;99191.93;;;15.70;92.68
49709;BME280;35601;55.902;13.606;2023-07-24T05:44:48;99194.25;;;15.53;92.72
49709;BME280;35601;55.902;13.606;2023-07-24T05:47:14;99194.07;;;15.55;92.41
49709;BME280;35601;55.902;13.606;2023-07-24T05:49:40;99192.41;;;15.61;92.43
49709;BME280;35601;55.902;13.606;2023-07-24T05:52:05;99193.51;;;15.96;92.89
49709;BME280;35601;55.902;13.606;2023-07-24T05:54:30;99189.58;;;15.52;92.48
49709;BME280;35601;55.902;13.606;2023-07-24T05:56:55;99179.44;;;15.64;92.54
49709;BME280;35601;55.902;13.606;2023-07-24T05:59:20;99176.77;;;15.70;92.52
49709;BME280;35601;55.902;13.606;2023-07-24T06:01:45;99169.12;;;15.78;93.01
49709;BME280;35601;55.902;13.606;2023-07-24T06:04:11;99173.56;;;15.52;92.86
49709;BME280;35601;55.902;13.606;2023-07-24T06:06:36;99173.45;;;15.51;92.60
49709;BME280;35601;55.902;13.606;2023-07-24T06:09:02;99175.57;;;15.86;93.33
49709;BME280;35601;55.902;13.606;2023-07-24T06:11:27;99174.07;;;15.53;93.32
49709;BME280;35601;55.902;13.606;2023-07-24T06:13:52;99169.85;;;15.75;94.23
49709;BME280;35601;55.902;13.606;2023-07-24T06:16:18;99170.14;;;15.85;94.51
49709;BME280;35601;55.902;13.606;2023-07-24T06:18:43;99169.33;;;15.66;93.98
49709;BME280;35601;55.902;13.606;2023-07-24T06:21:08;99167.38;;;15.57;94.28
49709;BME280;35601;55.902;13.606;2023-07-24T06:23:34;99167.70;;;15.59;94.27
49709;BME280;35601;55.902;13.606;2023-07-24T06:25:59;99170.96;;;15.81;93.55
49709;BME280;35601;55.902;13.606;2023-07-24T06:28:24;99174.21;;;15.85;93.23
49709;BME280;35601;55.902;13.606;2023-07-24T06:30:52;99168.59;;;15.88;92.81
49709;BME280;35601;55.902;13.606;2023-07-24T06:33:15;99164.96;;;15.73;92.75
49709;BME280;35601;55.902;13.606;2023-07-24T06:35:40;99160.75;;;15.65;93.01
49709;BME280;35601;55.902;13.606;2023-07-24T06:38:05;99156.65;;;15.61;93.38
49709;BME280;35601;55.902;13.606;2023-07-24T06:40:31;99159.37;;;15.81;92.67
49709;BME280;35601;55.902;13.606;2023-07-24T06:42:56;99158.08;;;15.66;93.05
49709;BME280;35601;55.902;13.606;2023-07-24T06:45:21;99158.19;;;15.59;93.69
49709;BME280;35601;55.902;13.606;2023-07-24T06:47:46;99154.13;;;15.60;93.91
49709;BME280;35601;55.902;13.606;2023-07-24T06:50:11;99155.75;;;15.58;92.87
49709;BME280;35601;55.902;13.606;2023-07-24T06:52:37;99152.14;;;15.76;92.02
49709;BME280;35601;55.902;13.606;2023-07-24T06:55:02;99152.65;;;15.80;92.32
49709;BME280;35601;55.902;13.606;2023-07-24T06:57:27;99147.89;;;15.74;92.00
49709;BME280;35601;55.902;13.606;2023-07-24T06:59:52;99147.39;;;15.45;91.47
49709;BME280;35601;55.902;13.606;2023-07-24T07:02:17;99141.54;;;15.59;91.91
49709;BME280;35601;55.902;13.606;2023-07-24T07:04:43;99144.35;;;15.41;92.57
49709;BME280;35601;55.902;13.606;2023-07-24T07:07:09;99138.36;;;15.32;93.09
49709;BME280;35601;55.902;13.606;2023-07-24T07:09:34;99144.45;;;15.12;93.08
49709;BME280;35601;55.902;13.606;2023-07-24T07:12:00;99145.47;;;15.43;93.35
49709;BME280;35601;55.902;13.606;2023-07-24T07:14:26;99144.12;;;15.61;93.24
49709;BME280;35601;55.902;13.606;2023-07-24T07:16:51;99143.38;;;15.60;91.49
49709;BME280;35601;55.902;13.606;2023-07-24T07:19:17;99147.04;;;15.26;91.93
49709;BME280;35601;55.902;13.606;2023-07-24T07:21:42;99141.28;;;15.63;91.82
49709;BME280;35601;55.902;13.606;2023-07-24T07:24:07;99140.74;;;15.04;91.80
49709;BME280;35601;55.902;13.606;2023-07-24T07:26:33;99136.35;;;15.59;92.44
49709;BME280;35601;55.902;13.606;2023-07-24T07:28:58;99138.61;;;15.76;92.40
49709;BME280;35601;55.902;13.606;2023-07-24T07:31:23;99135.37;;;15.86;92.45
49709;BME280;35601;55.902;13.606;2023-07-24T07:33:49;99136.41;;;16.18;92.61
49709;BME280;35601;55.902;13.606;2023-07-24T07:36:14;99132.43;;;15.95;91.53
49709;BME280;35601;55.902;13.606;2023-07-24T07:38:40;99129.07;;;15.90;89.47
49709;BME280;35601;55.902;13.606;2023-07-24T07:41:05;99130.81;;;15.99;88.33
49709;BME280;35601;55.902;13.606;2023-07-24T07:43:31;99128.74;;;16.04;87.45
49709;BME280;35601;55.902;13.606;2023-07-24T07:45:55;99131.00;;;16.11;87.37
49709;BME280;35601;55.902;13.606;2023-07-24T07:48:21;99133.79;;;16.32;86.87
49709;BME280;35601;55.902;13.606;2023-07-24T07:50:50;99127.67;;;16.17;86.79
49709;BME280;35601;55.902;13.606;2023-07-24T07:53:12;99132.04;;;16.20;87.94
49709;BME280;35601;55.902;13.606;2023-07-24T07:55:37;99133.57;;;16.21;87.98
49709;BME280;35601;55.902;13.606;2023-07-24T07:58:02;99133.33;;;16.15;88.19
49709;BME280;35601;55.902;13.606;2023-07-24T08:00:28;99133.17;;;16.23;88.97
49709;BME280;35601;55.902;13.606;2023-07-24T08:02:53;99132.43;;;16.17;88.21
49709;BME280;35601;55.902;13.606;2023-07-24T08:05:19;99134.67;;;16.16;87.27
49709;BME280;35601;55.902;13.606;2023-07-24T08:07:44;99130.30;;;16.11;87.78
49709;BME280;35601;55.902;13.606;2023-07-24T08:10:10;99128.81;;;16.52;87.41
49709;BME280;35601;55.902;13.606;2023-07-24T08:12:35;99128.96;;;16.21;86.94
49709;BME280;35601;55.902;13.606;2023-07-24T08:15:01;99122.45;;;16.32;87.84
49709;BME280;35601;55.902;13.606;2023-07-24T08:17:26;99116.09;;;16.10;88.40
49709;BME280;35601;55.902;13.606;2023-07-24T08:19:52;99111.74;;;15.85;89.62
49709;BME280;35601;55.902;13.606;2023-07-24T08:22:18;99110.46;;;16.09;89.45
49709;BME280;35601;55.902;13.606;2023-07-24T08:24:43;99108.65;;;16.01;89.58
49709;BME280;35601;55.902;13.606;2023-07-24T08:27:08;99107.84;;;16.20;88.76
49709;BME280;35601;55.902;13.606;2023-07-24T08:29:34;99108.72;;;16.13;88.64
49709;BME280;35601;55.902;13.606;2023-07-24T08:31:59;99109.65;;;16.35;89.08
49709;BME280;35601;55.902;13.606;2023-07-24T08:34:24;99107.69;;;16.74;88.61
49709;BME280;35601;55.902;13.606;2023-07-24T08:36:50;99110.00;;;16.95;87.32
49709;BME280;35601;55.902;13.606;2023-07-24T08:39:15;99103.94;;;17.29;86.41
49709;BME280;35601;55.902;13.606;2023-07-24T08:41:41;99110.51;;;17.18;86.02
49709;BME280;35601;55.902;13.606;2023-07-24T08:44:08;99101.74;;;17.26;83.64
49709;BME280;35601;55.902;13.606;2023-07-24T08:46:35;99099.80;;;17.25;82.00
49709;BME280;35601;55.902;13.606;2023-07-24T08:48:57;99099.18;;;17.38;83.53
49709;BME280;35601;55.902;13.606;2023-07-24T08:51:22;99094.53;;;17.48;81.99
49709;BME280;35601;55.902;13.606;2023-07-24T08:53:48;99091.75;;;17.86;83.23
49709;BME280;35601;55.902;13.606;2023-07-24T08:56:14;99087.07;;;17.57;80.36
49709;BME280;35601;55.902;13.606;2023-07-24T08:58:40;99081.93;;;17.63;80.38
49709;BME280;35601;55.902;13.606;2023-07-24T09:01:05;99081.88;;;17.63;80.18
49709;BME280;35601;55.902;13.606;2023-07-24T09:03:30;99080.40;;;17.22;79.96
49709;BME280;35601;55.902;13.606;2023-07-24T09:05:56;99080.32;;;16.93;82.25
49709;BME280;35601;55.902;13.606;2023-07-24T09:08:28;99086.84;;;17.33;82.23
49709;BME280;35601;55.902;13.606;2023-07-24T09:10:50;99084.18;;;17.34;83.99
49709;BME280;35601;55.902;13.606;2023-07-24T09:13:12;99087.42;;;17.43;83.62
49709;BME280;35601;55.902;13.606;2023-07-24T09:15:41;99092.95;;;17.41;82.60
49709;BME280;35601;55.902;13.606;2023-07-24T09:18:02;99087.71;;;17.57;80.90
49709;BME280;35601;55.902;13.606;2023-07-24T09:20:37;99082.81;;;17.54;80.91
49709;BME280;35601;55.902;13.606;2023-07-24T09:22:53;99082.35;;;17.43;79.26
49709;BME280;35601;55.902;13.606;2023-07-24T09:25:18;99078.93;;;17.34;81.43
49709;BME280;35601;55.902;13.606;2023-07-24T09:27:44;99076.34;;;17.76;79.34
49709;BME280;35601;55.902;13.606;2023-07-24T09:30:12;99079.86;;;17.49;79.55
49709;BME280;35601;55.902;13.606;2023-07-24T09:32:34;99080.99;;;17.40;80.07
49709;BME280;35601;55.902;13.606;2023-07-24T09:35:00;99078.45;;;17.07;81.91
49709;BME280;35601;55.902;13.606;2023-07-24T09:37:26;99080.50;;;17.05;82.32
49709;BME280;35601;55.902;13.606;2023-07-24T09:39:50;99080.88;;;17.06;81.46
49709;BME280;35601;55.902;13.606;2023-07-24T09:42:16;99080.34;;;17.07;84.22
49709;BME280;35601;55.902;13.606;2023-07-24T09:44:41;99082.23;;;16.95;84.02
49709;BME280;35601;55.902;13.606;2023-07-24T09:47:07;99080.43;;;16.84;85.12
49709;BME280;35601;55.902;13.606;2023-07-24T09:49:31;99083.12;;;17.10;84.65
49709;BME280;35601;55.902;13.606;2023-07-24T09:51:59;99075.85;;;16.71;85.52
49709;BME280;35601;55.902;13.606;2023-07-24T09:54:26;99086.23;;;16.62;88.01
49709;BME280;35601;55.902;13.606;2023-07-24T09:56:48;99088.81;;;16.22;89.33
49709;BME280;35601;55.902;13.606;2023-07-24T09:59:13;99089.00;;;16.14;87.78
49709;BME280;35601;55.902;13.606;2023-07-24T10:01:38;99092.21;;;16.41;87.10
49709;BME280;35601;55.902;13.606;2023-07-24T10:04:04;99090.68;;;16.64;86.67
49709;BME280;35601;55.902;13.606;2023-07-24T10:06:29;99091.02;;;16.77;86.24
49709;BME280;35601;55.902;13.606;2023-07-24T10:08:54;99087.28;;;16.93;83.86
49709;BME280;35601;55.902;13.606;2023-07-24T10:11:19;99090.81;;;16.83;83.87
49709;BME280;35601;55.902;13.606;2023-07-24T10:13:45;99092.33;;;16.80;83.73
49709;BME280;35601;55.902;13.606;2023-07-24T10:16:10;99098.00;;;16.50;83.53
49709;BME280;35601;55.902;13.606;2023-07-24T10:18:42;99087.88;;;16.70;83.44
49709;BME280;35601;55.902;13.606;2023-07-24T10:21:02;99091.70;;;16.90;81.82
49709;BME280;35601;55.902;13.606;2023-07-24T10:23:26;99096.11;;;16.68;82.83
49709;BME280;35601;55.902;13.606;2023-07-24T10:25:51;99098.93;;;16.43;83.60
49709;BME280;35601;55.902;13.606;2023-07-24T10:28:17;99096.54;;;16.54;83.99
49709;BME280;35601;55.902;13.606;2023-07-24T10:30:43;99096.77;;;16.75;84.91
49709;BME280;35601;55.902;13.606;2023-07-24T10:33:09;99099.77;;;17.19;85.69
49709;BME280;35601;55.902;13.606;2023-07-24T10:35:37;99091.11;;;17.32;80.83
49709;BME280;35601;55.902;13.606;2023-07-24T10:37:59;99090.57;;;17.74;81.14
49709;BME280;35601;55.902;13.606;2023-07-24T10:40:22;99089.79;;;17.48;79.83
49709;BME280;35601;55.902;13.606;2023-07-24T10:45:13;99098.63;;;18.08;77.56
49709;BME280;35601;55.902;13.606;2023-07-24T10:47:39;99104.16;;;18.01;75.45
49709;BME280;35601;55.902;13.606;2023-07-24T10:50:05;99106.85;;;17.62;77.39
49709;BME280;35601;55.902;13.606;2023-07-24T10:52:30;99101.91;;;17.70;77.15
49709;BME280;35601;55.902;13.606;2023-07-24T10:54:55;99099.90;;;17.89;77.80
49709;BME280;35601;55.902;13.606;2023-07-24T10:57:25;99099.05;;;17.96;76.83
49709;BME280;35601;55.902;13.606;2023-07-24T10:59:46;99099.93;;;17.77;76.46
49709;BME280;35601;55.902;13.606;2023-07-24T11:02:11;99093.56;;;17.55;76.77
49709;BME280;35601;55.902;13.606;2023-07-24T11:04:37;99094.50;;;17.75;79.52
49709;BME280;35601;55.902;13.606;2023-07-24T11:07:02;99096.33;;;17.81;79.99
49709;BME280;35601;55.902;13.606;2023-07-24T11:09:35;99095.46;;;17.77;78.77
49709;BME280;35601;55.902;13.606;2023-07-24T11:11:52;99083.00;;;18.49;82.27
49709;BME280;35601;55.902;13.606;2023-07-24T11:14:17;99079.55;;;18.69;81.21
49709;BME280;35601;55.902;13.606;2023-07-24T11:16:48;99080.50;;;19.12;79.29
49709;BME280;35601;55.902;13.606;2023-07-24T11:19:08;99081.65;;;19.02;75.30
49709;BME280;35601;55.902;13.606;2023-07-24T11:21:36;99083.32;;;19.14;75.41
49709;BME280;35601;55.902;13.606;2023-07-24T11:23:58;99081.86;;;19.41;72.80
49709;BME280;35601;55.902;13.606;2023-07-24T11:26:25;99074.13;;;19.50;69.21
49709;BME280;35601;55.902;13.606;2023-07-24T11:28:49;99077.97;;;19.31;66.97
49709;BME280;35601;55.902;13.606;2023-07-24T11:31:13;99076.78;;;19.20;66.01
49709;BME280;35601;55.902;13.606;2023-07-24T11:33:39;99066.44;;;19.35;68.19
49709;BME280;35601;55.902;13.606;2023-07-24T11:36:04;99067.46;;;19.74;66.98
49709;BME280;35601;55.902;13.606;2023-07-24T11:38:29;99072.54;;;19.77;67.29
49709;BME280;35601;55.902;13.606;2023-07-24T11:40:54;99072.00;;;19.92;68.46
49709;BME280;35601;55.902;13.606;2023-07-24T11:43:21;99072.28;;;20.04;67.96
49709;BME280;35601;55.902;13.606;2023-07-24T11:45:45;99069.99;;;20.47;67.20
49709;BME280;35601;55.902;13.606;2023-07-24T11:48:10;99071.53;;;20.70;66.46
49709;BME280;35601;55.902;13.606;2023-07-24T11:50:43;99076.17;;;20.50;64.58
49709;BME280;35601;55.902;13.606;2023-07-24T11:52:59;99077.67;;;20.68;61.64
49709;BME280;35601;55.902;13.606;2023-07-24T11:55:30;99081.94;;;20.86;62.74
49709;BME280;35601;55.902;13.606;2023-07-24T11:57:56;99077.28;;;21.03;60.78
49709;BME280;35601;55.902;13.606;2023-07-24T12:00:18;99080.11;;;20.77;62.44
49709;BME280;35601;55.902;13.606;2023-07-24T12:02:41;99088.60;;;20.83;59.28
49709;BME280;35601;55.902;13.606;2023-07-24T12:05:07;99084.20;;;20.74;59.29
49709;BME280;35601;55.902;13.606;2023-07-24T12:07:33;99083.72;;;20.90;59.17
49709;BME280;35601;55.902;13.606;2023-07-24T12:09:56;99083.25;;;20.87;61.53
49709;BME280;35601;55.902;13.606;2023-07-24T12:12:21;99083.21;;;20.68;57.82
49709;BME280;35601;55.902;13.606;2023-07-24T12:14:46;99079.96;;;21.11;59.17
49709;BME280;35601;55.902;13.606;2023-07-24T12:17:17;99086.09;;;20.52;58.98
49709;BME280;35601;55.902;13.606;2023-07-24T12:19:36;99079.98;;;20.83;57.68
49709;BME280;35601;55.902;13.606;2023-07-24T12:22:02;99078.56;;;21.15;57.71
49709;BME280;35601;55.902;13.606;2023-07-24T12:24:26;99083.01;;;20.39;59.20
49709;BME280;35601;55.902;13.606;2023-07-24T12:26:51;99073.41;;;20.73;59.10
49709;BME280;35601;55.902;13.606;2023-07-24T12:29:17;99076.37;;;20.44;59.98
49709;BME280;35601;55.902;13.606;2023-07-24T12:31:42;99074.66;;;20.15;60.48
49709;BME280;35601;55.902;13.606;2023-07-24T12:34:07;99074.08;;;20.35;60.66
49709;BME280;35601;55.902;13.606;2023-07-24T12:36:32;99073.70;;;20.12;61.44
49709;BME280;35601;55.902;13.606;2023-07-24T12:38:57;99072.87;;;19.85;62.41
49709;BME280;35601;55.902;13.606;2023-07-24T12:41:22;99072.99;;;19.82;61.73